Time;durP1;ratioP1;P1;durP2;ratioP2;P2;SDS_P1;SDS_P2;PMS_P1;PMS_P2;Temp;Humidity;BMP_temperature;BMP_pressure;BME280_temperature;BME280_humidity;BME280_pressure;Samples;Min_cycle;Max_cycle;Signal;HPM_P1;HPM_P2
2022/11/01 00:02:04;;;;;;;;;;;;;12.86;98181.80;;;;109029;1268;41145;-57
2022/11/01 00:04:33;;;;;;;;;;;;;12.80;98176.00;;;;109010;1268;41610;-57
2022/11/01 00:07:03;;;;;;;;;;;;;12.84;98179.20;;;;109045;1268;41145;-57
2022/11/01 00:09:33;;;;;;;;;;;;;12.86;98181.20;;;;109055;1268;42678;-57
2022/11/01 00:12:03;;;;;;;;;;;;;12.80;98183.00;;;;109018;1268;41152;-58
2022/11/01 00:14:33;;;;;;;;;;;;;12.80;98180.20;;;;109080;1268;41130;-56
2022/11/01 00:17:03;;;;;;;;;;;;;12.80;98181.80;;;;108944;1269;41148;-57
2022/11/01 00:19:33;;;;;;;;;;;;;12.80;98185.20;;;;108993;1268;41286;-57
2022/11/01 00:22:02;;;;;;;;;;;;;12.80;98185.00;;;;109066;1268;42443;-57
2022/11/01 00:24:32;;;;;;;;;;;;;12.80;98182.60;;;;109052;1268;41156;-56
2022/11/01 00:27:03;;;;;;;;;;;;;12.80;98178.40;;;;109026;1268;41290;-57
2022/11/01 00:29:32;;;;;;;;;;;;;12.80;98177.40;;;;109039;1268;42094;-57
2022/11/01 00:32:01;;;;;;;;;;;;;12.80;98176.80;;;;109060;1266;42146;-57
2022/11/01 00:34:30;;;;;;;;;;;;;12.80;98180.40;;;;109072;1266;41145;-57
2022/11/01 00:36:59;;;;;;;;;;;;;12.80;98182.00;;;;109006;1268;41144;-57
2022/11/01 00:39:32;;;;;;;;;;;;;12.80;98183.40;;;;109071;1268;41165;-57
2022/11/01 00:42:02;;;;;;;;;;;;;12.80;98177.20;;;;109050;1268;42412;-57
2022/11/01 00:44:31;;;;;;;;;;;;;12.80;98172.80;;;;108968;1268;41608;-57
2022/11/01 00:47:00;;;;;;;;;;;;;12.70;98173.80;;;;108893;1263;41147;-57
2022/11/01 00:49:30;;;;;;;;;;;;;12.70;98167.40;;;;108971;1268;41137;-57
2022/11/01 00:52:01;;;;;;;;;;;;;12.70;98161.20;;;;109053;1268;41680;-57
2022/11/01 00:54:30;;;;;;;;;;;;;12.66;98161.60;;;;109042;1268;41162;-57
2022/11/01 00:57:00;;;;;;;;;;;;;12.70;98159.20;;;;109055;1268;41146;-57
2022/11/01 00:59:29;;;;;;;;;;;;;12.70;98161.80;;;;109064;1268;41449;-57
2022/11/01 01:01:59;;;;;;;;;;;;;12.70;98158.00;;;;108902;1268;41607;-57
2022/11/01 01:04:29;;;;;;;;;;;;;12.70;98157.00;;;;109031;1268;41712;-57
2022/11/01 01:06:59;;;;;;;;;;;;;12.70;98162.80;;;;108939;1268;41232;-57
2022/11/01 01:09:29;;;;;;;;;;;;;12.60;98159.40;;;;108972;1263;41964;-57
2022/11/01 01:11:59;;;;;;;;;;;;;12.60;98156.40;;;;108944;1268;42254;-57
2022/11/01 01:14:28;;;;;;;;;;;;;12.60;98158.00;;;;109010;1268;41276;-57
2022/11/01 01:17:00;;;;;;;;;;;;;12.60;98158.00;;;;109008;1268;41128;-57
2022/11/01 01:19:30;;;;;;;;;;;;;12.60;98155.40;;;;108982;1268;43128;-57
2022/11/01 01:22:01;;;;;;;;;;;;;12.60;98155.20;;;;109032;1267;41138;-57
2022/11/01 01:24:31;;;;;;;;;;;;;12.60;98155.00;;;;108991;1268;42335;-57
2022/11/01 01:27:02;;;;;;;;;;;;;12.60;98155.60;;;;108989;1266;41145;-57
2022/11/01 01:29:33;;;;;;;;;;;;;12.60;98153.60;;;;109006;1268;41537;-57
2022/11/01 01:32:02;;;;;;;;;;;;;12.60;98155.20;;;;109002;1268;41155;-57
2022/11/01 01:34:32;;;;;;;;;;;;;12.60;98153.80;;;;109031;1268;41889;-56
2022/11/01 01:37:02;;;;;;;;;;;;;12.60;98153.40;;;;109022;1268;41592;-57
2022/11/01 01:39:32;;;;;;;;;;;;;12.60;98155.60;;;;109011;1268;41216;-57
2022/11/01 01:42:29;;;;;;;;;;;;;12.60;98154.00;;;;109008;1267;41202;-56
2022/11/01 01:44:57;;;;;;;;;;;;;12.60;98153.80;;;;108944;1268;42465;-57
2022/11/01 01:47:28;;;;;;;;;;;;;12.50;98151.20;;;;109067;1268;41264;-56
2022/11/01 01:50:10;;;;;;;;;;;;;12.50;98151.60;;;;108976;1268;41431;-57
2022/11/01 01:52:47;;;;;;;;;;;;;12.50;98151.20;;;;109012;1268;42097;-57
2022/11/01 01:55:18;;;;;;;;;;;;;12.50;98149.00;;;;109037;1266;42405;-57
2022/11/01 01:57:47;;;;;;;;;;;;;12.50;98150.40;;;;109044;1268;41720;-56
2022/11/01 02:00:17;;;;;;;;;;;;;12.50;98148.40;;;;109039;1264;41147;-57
2022/11/01 02:02:47;;;;;;;;;;;;;12.50;98148.60;;;;109056;1268;41156;-56
2022/11/01 02:05:42;;;;;;;;;;;;;12.50;98155.40;;;;109034;1268;41415;-57
2022/11/01 02:08:12;;;;;;;;;;;;;12.50;98154.00;;;;109030;1268;41237;-59
2022/11/01 02:10:41;;;;;;;;;;;;;12.50;98154.00;;;;108994;1268;41761;-59
2022/11/01 02:13:11;;;;;;;;;;;;;12.50;98155.80;;;;109024;1268;41597;-58
2022/11/01 02:16:00;;;;;;;;;;;;;12.50;98156.60;;;;108953;1268;41143;-56
2022/11/01 02:18:45;;;;;;;;;;;;;12.50;98154.00;;;;108980;1266;41247;-56
2022/11/01 02:21:35;;;;;;;;;;;;;12.50;98156.60;;;;108949;1268;41232;-56
2022/11/01 02:24:34;;;;;;;;;;;;;12.44;98155.20;;;;108983;1268;41199;-56
2022/11/01 02:27:24;;;;;;;;;;;;;12.40;98152.40;;;;108882;1268;42874;-57
2022/11/01 02:29:56;;;;;;;;;;;;;12.40;98150.20;;;;109053;1268;41158;-56
2022/11/01 02:32:28;;;;;;;;;;;;;12.40;98150.00;;;;109014;1268;41144;-57
2022/11/01 02:34:59;;;;;;;;;;;;;12.40;98148.40;;;;109070;1268;41144;-57
2022/11/01 02:37:28;;;;;;;;;;;;;12.40;98152.40;;;;109074;1268;41299;-56
2022/11/01 02:40:05;;;;;;;;;;;;;12.40;98150.00;;;;109030;1268;41155;-57
2022/11/01 02:42:36;;;;;;;;;;;;;12.40;98151.60;;;;109093;1266;41620;-57
2022/11/01 02:45:09;;;;;;;;;;;;;12.42;98155.20;;;;109052;1268;41911;-57
2022/11/01 02:47:39;;;;;;;;;;;;;12.48;98155.20;;;;109067;1268;41621;-57
2022/11/01 02:50:09;;;;;;;;;;;;;12.48;98155.20;;;;109019;1269;42448;-57
2022/11/01 02:52:39;;;;;;;;;;;;;12.48;98157.20;;;;108922;1269;41746;-57
2022/11/01 02:55:28;;;;;;;;;;;;;12.40;98153.80;;;;108933;1268;41176;-57
2022/11/01 02:58:00;;;;;;;;;;;;;12.42;98158.20;;;;109026;1267;41446;-57
2022/11/01 03:00:32;;;;;;;;;;;;;12.42;98160.40;;;;109030;1268;41665;-57
2022/11/01 03:03:09;;;;;;;;;;;;;12.46;98159.20;;;;109028;1267;41384;-57
2022/11/01 03:05:40;;;;;;;;;;;;;12.50;98158.60;;;;109042;1268;41234;-57
2022/11/01 03:08:10;;;;;;;;;;;;;12.50;98157.00;;;;109027;1268;41139;-57
2022/11/01 03:10:48;;;;;;;;;;;;;12.50;98157.00;;;;109055;1268;41623;-57
2022/11/01 03:13:31;;;;;;;;;;;;;12.50;98157.40;;;;109013;1267;41156;-57
2022/11/01 03:16:23;;;;;;;;;;;;;12.50;98162.00;;;;109023;1260;41599;-57
2022/11/01 03:19:02;;;;;;;;;;;;;12.46;98158.20;;;;108966;1268;41170;-57
2022/11/01 03:21:42;;;;;;;;;;;;;12.40;98168.00;;;;109021;1268;42117;-57
2022/11/01 03:24:24;;;;;;;;;;;;;12.40;98167.40;;;;109032;1258;41158;-57
2022/11/01 03:27:04;;;;;;;;;;;;;12.30;98163.80;;;;109041;1268;42072;-57
2022/11/01 03:29:33;;;;;;;;;;;;;12.30;98164.20;;;;109055;1268;41458;-57
2022/11/01 03:32:03;;;;;;;;;;;;;12.20;98164.00;;;;109010;1268;41936;-57
2022/11/01 03:34:32;;;;;;;;;;;;;12.12;98169.20;;;;109021;1268;41140;-57
2022/11/01 03:37:05;;;;;;;;;;;;;12.10;98167.00;;;;109028;1266;41252;-57
2022/11/01 03:39:41;;;;;;;;;;;;;12.10;98170.20;;;;108976;1268;41159;-57
2022/11/01 03:42:15;;;;;;;;;;;;;12.10;98168.80;;;;109039;1266;41155;-56
2022/11/01 03:44:48;;;;;;;;;;;;;12.10;98166.20;;;;109040;1266;41379;-56
2022/11/01 03:47:17;;;;;;;;;;;;;12.00;98168.40;;;;108987;1268;42264;-57
2022/11/01 03:49:49;;;;;;;;;;;;;12.00;98164.60;;;;109062;1268;42002;-57
2022/11/01 03:52:18;;;;;;;;;;;;;12.00;98169.80;;;;108985;1268;41156;-57
2022/11/01 03:54:47;;;;;;;;;;;;;12.00;98165.20;;;;109010;1268;42604;-57
2022/11/01 03:57:17;;;;;;;;;;;;;12.00;98172.00;;;;109008;1267;41236;-57
2022/11/01 03:59:46;;;;;;;;;;;;;11.90;98175.20;;;;108978;1266;41626;-58
2022/11/01 04:02:16;;;;;;;;;;;;;11.80;98175.60;;;;109015;1268;41162;-57
2022/11/01 04:04:49;;;;;;;;;;;;;11.80;98176.00;;;;108960;1268;41156;-56
2022/11/01 04:07:17;;;;;;;;;;;;;11.80;98175.20;;;;109044;1268;41182;-58
2022/11/01 04:09:47;;;;;;;;;;;;;11.80;98173.20;;;;109013;1268;41684;-57
2022/11/01 04:12:16;;;;;;;;;;;;;11.80;98172.40;;;;109033;1266;41174;-57
2022/11/01 04:20:35;;;;;;;;;;;;;11.80;98162.60;;;;108983;1268;41147;-57
2022/11/01 04:23:05;;;;;;;;;;;;;11.82;98163.20;;;;109033;1268;41608;-57
2022/11/01 04:25:34;;;;;;;;;;;;;11.90;98164.40;;;;109034;1266;41369;-57
2022/11/01 04:28:03;;;;;;;;;;;;;11.90;98162.80;;;;109040;1268;41908;-57
2022/11/01 04:30:32;;;;;;;;;;;;;11.90;98166.40;;;;109048;1268;41602;-57
2022/11/01 04:33:00;;;;;;;;;;;;;12.00;98168.00;;;;109015;1268;41159;-57
2022/11/01 04:35:30;;;;;;;;;;;;;12.00;98167.80;;;;108971;1268;41159;-57
2022/11/01 04:37:58;;;;;;;;;;;;;12.00;98166.00;;;;108990;1266;41179;-57
2022/11/01 04:40:27;;;;;;;;;;;;;12.10;98163.80;;;;108979;1268;41421;-56
2022/11/01 04:42:57;;;;;;;;;;;;;12.10;98161.40;;;;109022;1268;41141;-56
2022/11/01 04:45:26;;;;;;;;;;;;;12.10;98163.60;;;;108975;1268;41696;-56
2022/11/01 04:48:02;;;;;;;;;;;;;12.10;98161.40;;;;109040;1268;41603;-56
2022/11/01 04:50:33;;;;;;;;;;;;;12.10;98156.40;;;;109035;1268;41388;-57
2022/11/01 04:53:01;;;;;;;;;;;;;12.08;98158.20;;;;109044;1257;42451;-58
2022/11/01 04:55:31;;;;;;;;;;;;;12.10;98156.00;;;;109072;1268;41705;-58
2022/11/01 04:57:59;;;;;;;;;;;;;12.02;98155.00;;;;109066;1268;41161;-58
2022/11/01 05:00:28;;;;;;;;;;;;;12.00;98156.20;;;;108926;1268;41700;-58
2022/11/01 05:03:03;;;;;;;;;;;;;12.00;98154.00;;;;108975;1267;41933;-55
2022/11/01 05:05:32;;;;;;;;;;;;;12.00;98153.20;;;;109024;1266;41159;-57
2022/11/01 05:08:02;;;;;;;;;;;;;12.00;98156.20;;;;108838;1268;41687;-57
2022/11/01 05:10:31;;;;;;;;;;;;;12.00;98146.60;;;;109016;1268;41214;-56
2022/11/01 05:13:01;;;;;;;;;;;;;12.00;98154.20;;;;109037;1268;41946;-57
2022/11/01 05:15:30;;;;;;;;;;;;;12.00;98151.60;;;;109078;1266;41635;-57
2022/11/01 05:17:58;;;;;;;;;;;;;12.04;98154.80;;;;109022;1268;41152;-57
2022/11/01 05:20:31;;;;;;;;;;;;;12.04;98157.60;;;;109021;1260;41156;-57
2022/11/01 05:23:00;;;;;;;;;;;;;12.06;98164.40;;;;109034;1268;41151;-57
2022/11/01 05:25:30;;;;;;;;;;;;;12.00;98160.60;;;;109081;1268;42028;-57
2022/11/01 05:28:04;;;;;;;;;;;;;12.02;98165.40;;;;109090;1268;42485;-57
2022/11/01 05:30:33;;;;;;;;;;;;;12.08;98162.80;;;;109089;1264;41239;-57
2022/11/01 05:33:02;;;;;;;;;;;;;12.10;98164.00;;;;109071;1267;41133;-57
2022/11/01 05:35:32;;;;;;;;;;;;;12.10;98165.80;;;;109043;1268;41601;-57
2022/11/01 05:38:02;;;;;;;;;;;;;12.10;98162.20;;;;109056;1268;42257;-57
2022/11/01 05:40:31;;;;;;;;;;;;;12.10;98160.80;;;;109115;1266;42286;-57
2022/11/01 05:43:00;;;;;;;;;;;;;12.10;98162.40;;;;109082;1268;41145;-57
2022/11/01 05:45:29;;;;;;;;;;;;;12.00;98160.20;;;;109016;1268;41148;-57
2022/11/01 05:48:01;;;;;;;;;;;;;11.98;98169.60;;;;108969;1268;41145;-57
2022/11/01 05:50:30;;;;;;;;;;;;;11.88;98172.20;;;;108961;1264;42074;-57
2022/11/01 05:53:07;;;;;;;;;;;;;11.80;98168.00;;;;109038;1268;41168;-57
2022/11/01 05:55:35;;;;;;;;;;;;;11.80;98169.40;;;;109051;1268;41175;-57
2022/11/01 05:58:04;;;;;;;;;;;;;11.80;98177.20;;;;109032;1268;41657;-57
2022/11/01 06:00:33;;;;;;;;;;;;;11.80;98180.80;;;;109009;1268;41234;-57
2022/11/01 06:03:01;;;;;;;;;;;;;11.80;98183.00;;;;109018;1268;41440;-57
2022/11/01 06:05:30;;;;;;;;;;;;;11.80;98184.40;;;;109010;1268;41920;-57
2022/11/01 06:08:00;;;;;;;;;;;;;11.80;98184.20;;;;109025;1268;41614;-57
2022/11/01 06:10:29;;;;;;;;;;;;;11.80;98184.60;;;;108997;1267;41573;-56
2022/11/01 06:12:57;;;;;;;;;;;;;11.80;98192.20;;;;109020;1268;41156;-57
2022/11/01 06:15:26;;;;;;;;;;;;;11.80;98187.80;;;;109005;1266;42244;-57
2022/11/01 06:17:59;;;;;;;;;;;;;11.80;98187.80;;;;108984;1268;42232;-57
2022/11/01 06:20:28;;;;;;;;;;;;;11.80;98194.00;;;;108955;1268;41169;-57
2022/11/01 06:22:57;;;;;;;;;;;;;11.88;98195.80;;;;109013;1268;41204;-57
2022/11/01 06:25:26;;;;;;;;;;;;;11.90;98200.00;;;;108882;1269;41195;-57
2022/11/01 06:27:55;;;;;;;;;;;;;11.90;98198.60;;;;109022;1268;41141;-57
2022/11/01 06:30:23;;;;;;;;;;;;;11.90;98199.40;;;;109015;1266;41619;-57
2022/11/01 06:32:52;;;;;;;;;;;;;11.90;98203.00;;;;109039;1267;41931;-57
2022/11/01 06:35:21;;;;;;;;;;;;;11.90;98205.20;;;;108990;1267;41273;-57
2022/11/01 06:37:50;;;;;;;;;;;;;12.00;98202.60;;;;108998;1268;41911;-58
2022/11/01 06:40:19;;;;;;;;;;;;;12.00;98200.20;;;;108939;1268;42249;-58
2022/11/01 06:42:47;;;;;;;;;;;;;12.00;98196.80;;;;108992;1268;41166;-57
2022/11/01 06:45:16;;;;;;;;;;;;;12.10;98199.80;;;;109013;1262;41601;-57
2022/11/01 06:47:45;;;;;;;;;;;;;12.10;98196.00;;;;109040;1267;41144;-57
2022/11/01 06:50:15;;;;;;;;;;;;;12.10;98202.00;;;;109073;1268;41160;-57
2022/11/01 06:52:44;;;;;;;;;;;;;12.10;98200.20;;;;109008;1268;41232;-57
2022/11/01 06:55:13;;;;;;;;;;;;;12.10;98199.00;;;;109019;1267;41983;-58
2022/11/01 06:57:42;;;;;;;;;;;;;12.08;98201.20;;;;109033;1267;41147;-57
2022/11/01 07:00:11;;;;;;;;;;;;;12.00;98199.20;;;;109028;1266;41138;-57
2022/11/01 07:02:40;;;;;;;;;;;;;12.00;98201.20;;;;109085;1268;41638;-56
2022/11/01 07:05:08;;;;;;;;;;;;;12.00;98206.20;;;;108984;1268;41145;-59
2022/11/01 07:07:37;;;;;;;;;;;;;12.00;98207.00;;;;108985;1268;41888;-57
2022/11/01 07:10:07;;;;;;;;;;;;;12.00;98208.80;;;;109084;1268;41164;-57
2022/11/01 07:12:35;;;;;;;;;;;;;12.00;98211.40;;;;109021;1264;41169;-57
2022/11/01 07:15:04;;;;;;;;;;;;;12.00;98211.00;;;;108942;1266;41440;-57
2022/11/01 07:17:32;;;;;;;;;;;;;12.00;98212.20;;;;108809;1268;41252;-56
2022/11/01 07:20:02;;;;;;;;;;;;;12.10;98211.80;;;;109007;1266;41239;-56
2022/11/01 07:22:30;;;;;;;;;;;;;12.10;98206.80;;;;109005;1267;42222;-56
2022/11/01 07:24:59;;;;;;;;;;;;;12.20;98205.60;;;;108972;1268;41148;-57
2022/11/01 07:27:30;;;;;;;;;;;;;12.22;98200.20;;;;108781;1264;269497;-57
2022/11/01 07:29:59;;;;;;;;;;;;;12.30;98204.20;;;;108840;1266;42602;-56
2022/11/01 07:32:28;;;;;;;;;;;;;12.30;98205.00;;;;108996;1267;41699;-58
2022/11/01 07:34:56;;;;;;;;;;;;;12.32;98203.60;;;;109037;1263;41208;-57
2022/11/01 07:37:27;;;;;;;;;;;;;12.40;98203.40;;;;109025;1268;41243;-55
2022/11/01 07:39:56;;;;;;;;;;;;;12.40;98200.00;;;;109033;1264;41155;-57
2022/11/01 07:42:27;;;;;;;;;;;;;12.40;98203.40;;;;108827;1268;41241;-55
2022/11/01 07:44:55;;;;;;;;;;;;;12.48;98205.20;;;;108949;1268;41347;-55
2022/11/01 07:47:24;;;;;;;;;;;;;12.50;98201.60;;;;108969;1268;41438;-55
2022/11/01 07:49:53;;;;;;;;;;;;;12.54;98197.20;;;;108938;1267;41234;-55
2022/11/01 07:52:22;;;;;;;;;;;;;12.60;98194.40;;;;109013;1268;41235;-56
2022/11/01 07:54:51;;;;;;;;;;;;;12.60;98193.00;;;;108966;1267;41801;-56
2022/11/01 07:57:19;;;;;;;;;;;;;12.60;98193.60;;;;108974;1268;42708;-57
2022/11/01 07:59:48;;;;;;;;;;;;;12.60;98196.40;;;;108825;1269;41238;-56
2022/11/01 08:02:17;;;;;;;;;;;;;12.56;98197.40;;;;109013;1268;41828;-56
2022/11/01 08:04:47;;;;;;;;;;;;;12.50;98191.40;;;;108991;1267;41682;-56
2022/11/01 08:07:16;;;;;;;;;;;;;12.50;98195.40;;;;108946;1268;41137;-56
2022/11/01 08:09:46;;;;;;;;;;;;;12.60;98194.80;;;;108989;1268;41139;-58
2022/11/01 08:12:14;;;;;;;;;;;;;12.60;98192.00;;;;108989;1267;41409;-57
2022/11/01 08:14:43;;;;;;;;;;;;;12.62;98189.20;;;;109029;1268;41722;-57
2022/11/01 08:17:12;;;;;;;;;;;;;12.70;98186.60;;;;108966;1266;41250;-57
2022/11/01 08:19:41;;;;;;;;;;;;;12.70;98183.20;;;;108929;1268;41615;-57
2022/11/01 08:22:09;;;;;;;;;;;;;12.70;98182.80;;;;108994;1268;41163;-57
2022/11/01 08:24:38;;;;;;;;;;;;;12.76;98185.20;;;;108925;1268;41242;-56
2022/11/01 08:27:06;;;;;;;;;;;;;12.70;98186.60;;;;108975;1268;42709;-57
2022/11/01 08:29:35;;;;;;;;;;;;;12.70;98182.60;;;;108983;1268;41149;-57
2022/11/01 08:32:04;;;;;;;;;;;;;12.74;98182.40;;;;108990;1264;41916;-57
2022/11/01 08:34:33;;;;;;;;;;;;;12.80;98184.80;;;;109020;1268;41516;-56
2022/11/01 08:37:01;;;;;;;;;;;;;12.90;98178.00;;;;108968;1268;42307;-56
2022/11/01 08:39:30;;;;;;;;;;;;;12.90;98173.40;;;;108972;1269;42135;-56
2022/11/01 08:42:00;;;;;;;;;;;;;12.90;98176.00;;;;108957;1269;42157;-56
2022/11/01 08:44:28;;;;;;;;;;;;;13.00;98174.80;;;;108951;1269;41162;-55
2022/11/01 08:46:59;;;;;;;;;;;;;13.00;98170.00;;;;108996;1269;41651;-55
2022/11/01 08:49:28;;;;;;;;;;;;;13.00;98170.80;;;;109024;1268;41139;-56
2022/11/01 08:51:58;;;;;;;;;;;;;13.00;98169.80;;;;109039;1268;41604;-56
2022/11/01 08:54:26;;;;;;;;;;;;;13.06;98172.00;;;;108978;1268;41139;-56
2022/11/01 08:56:55;;;;;;;;;;;;;13.10;98166.60;;;;108963;1266;41313;-56
2022/11/01 08:59:24;;;;;;;;;;;;;13.10;98173.20;;;;109007;1266;42507;-56
2022/11/01 09:01:53;;;;;;;;;;;;;13.20;98171.40;;;;108823;1269;42396;-56
2022/11/01 09:04:22;;;;;;;;;;;;;13.20;98173.00;;;;108934;1269;41170;-56
2022/11/01 09:06:50;;;;;;;;;;;;;13.20;98170.40;;;;108943;1269;41731;-56
2022/11/01 09:09:18;;;;;;;;;;;;;13.20;98178.80;;;;108817;1269;41573;-56
2022/11/01 09:11:47;;;;;;;;;;;;;13.30;98173.80;;;;108901;1269;41159;-56
2022/11/01 09:14:16;;;;;;;;;;;;;13.30;98179.00;;;;108910;1267;41194;-56
2022/11/01 09:16:44;;;;;;;;;;;;;13.40;98172.20;;;;108792;1265;41148;-56
2022/11/01 09:19:13;;;;;;;;;;;;;13.40;98173.80;;;;108717;1265;41180;-56
2022/11/01 09:21:44;;;;;;;;;;;;;13.40;98172.80;;;;108808;1269;41224;-56
2022/11/01 09:24:14;;;;;;;;;;;;;13.48;98168.00;;;;108867;1269;42065;-56
2022/11/01 09:26:43;;;;;;;;;;;;;13.50;98169.60;;;;108961;1265;41727;-56
2022/11/01 09:29:12;;;;;;;;;;;;;13.60;98166.00;;;;108984;1265;41154;-56
2022/11/01 09:31:40;;;;;;;;;;;;;13.60;98162.20;;;;108966;1266;41718;-56
2022/11/01 09:34:10;;;;;;;;;;;;;13.62;98158.80;;;;108811;1268;42412;-56
2022/11/01 09:36:39;;;;;;;;;;;;;13.70;98156.00;;;;108990;1269;41805;-55
2022/11/01 09:39:08;;;;;;;;;;;;;13.70;98154.40;;;;108737;1265;41247;-55
2022/11/01 09:41:46;;;;;;;;;;;;;13.72;98153.80;;;;108706;1269;41638;-55
2022/11/01 09:44:19;;;;;;;;;;;;;13.76;98155.20;;;;108930;1265;41348;-56
2022/11/01 09:46:49;;;;;;;;;;;;;13.80;98158.20;;;;108965;1266;41228;-56
2022/11/01 09:49:19;;;;;;;;;;;;;13.82;98160.80;;;;108889;1270;41402;-56
2022/11/01 09:51:48;;;;;;;;;;;;;13.90;98158.80;;;;108942;1269;41203;-55
2022/11/01 09:54:18;;;;;;;;;;;;;14.00;98158.40;;;;108920;1269;41240;-58
2022/11/01 09:57:10;;;;;;;;;;;;;14.00;98155.60;;;;108962;1266;41233;-57
2022/11/01 09:59:45;;;;;;;;;;;;;14.10;98152.00;;;;108656;1269;41224;-56
2022/11/01 10:02:29;;;;;;;;;;;;;14.10;98148.40;;;;108926;1265;41150;-56
2022/11/01 10:05:07;;;;;;;;;;;;;14.20;98148.60;;;;108643;1271;41238;-56
2022/11/01 10:07:39;;;;;;;;;;;;;14.30;98144.40;;;;108873;1264;41161;-56
2022/11/01 10:10:16;;;;;;;;;;;;;14.30;98143.60;;;;108866;1271;41160;-56
2022/11/01 10:12:54;;;;;;;;;;;;;14.40;98143.40;;;;108943;1269;42269;-57
2022/11/01 10:15:29;;;;;;;;;;;;;14.50;98149.80;;;;108846;1269;41173;-56
2022/11/01 10:17:58;;;;;;;;;;;;;14.60;98141.20;;;;108961;1269;41148;-58
2022/11/01 10:20:29;;;;;;;;;;;;;14.72;98136.20;;;;108944;1269;41163;-56
2022/11/01 10:22:57;;;;;;;;;;;;;15.00;98133.00;;;;108946;1269;41225;-56
2022/11/01 10:25:28;;;;;;;;;;;;;15.10;98135.00;;;;108700;1269;41604;-56
2022/11/01 10:27:57;;;;;;;;;;;;;15.20;98132.00;;;;108706;1269;42026;-56
2022/11/01 10:30:26;;;;;;;;;;;;;15.30;98123.00;;;;108747;1269;41158;-56
2022/11/01 10:33:00;;;;;;;;;;;;;15.40;98115.00;;;;108757;1269;41596;-56
2022/11/01 10:35:39;;;;;;;;;;;;;15.50;98105.60;;;;108732;1269;41153;-56
2022/11/01 10:38:11;;;;;;;;;;;;;15.70;98107.00;;;;108990;1269;41172;-56
2022/11/01 10:40:54;;;;;;;;;;;;;16.06;98103.20;;;;108943;1269;41597;-56
2022/11/01 10:43:23;;;;;;;;;;;;;16.42;98103.60;;;;108953;1269;41139;-55
2022/11/01 10:45:52;;;;;;;;;;;;;16.80;98107.20;;;;108974;1269;41138;-56
2022/11/01 10:48:31;;;;;;;;;;;;;16.90;98103.20;;;;108965;1267;41961;-56
2022/11/01 10:51:02;;;;;;;;;;;;;17.20;98100.20;;;;109003;1266;41600;-56
2022/11/01 10:53:37;;;;;;;;;;;;;17.64;98097.60;;;;108987;1266;41494;-56
2022/11/01 10:56:08;;;;;;;;;;;;;18.22;98090.00;;;;108952;1269;42462;-56
2022/11/01 10:58:36;;;;;;;;;;;;;18.82;98087.20;;;;108952;1270;41155;-56
2022/11/01 11:01:05;;;;;;;;;;;;;19.56;98066.80;;;;108974;1269;41153;-56
2022/11/01 11:03:35;;;;;;;;;;;;;20.34;98068.60;;;;108937;1266;41923;-56
2022/11/01 11:06:04;;;;;;;;;;;;;20.70;98062.60;;;;108907;1269;41153;-56
2022/11/01 11:08:33;;;;;;;;;;;;;21.16;98056.00;;;;108886;1269;41890;-56
2022/11/01 11:11:02;;;;;;;;;;;;;22.24;98052.60;;;;108870;1271;42024;-56
2022/11/01 11:13:33;;;;;;;;;;;;;23.42;98042.40;;;;108910;1266;41690;-56
2022/11/01 11:16:04;;;;;;;;;;;;;24.44;98041.80;;;;108920;1270;41174;-56
2022/11/01 11:18:41;;;;;;;;;;;;;25.18;98029.80;;;;108989;1270;41297;-56
2022/11/01 11:21:10;;;;;;;;;;;;;26.24;98029.40;;;;108981;1266;41999;-56
2022/11/01 11:23:40;;;;;;;;;;;;;27.08;98023.40;;;;108888;1270;41143;-57
2022/11/01 11:26:10;;;;;;;;;;;;;27.64;98012.80;;;;108889;1266;41146;-56
2022/11/01 11:28:43;;;;;;;;;;;;;27.52;98012.00;;;;108933;1266;41497;-56
2022/11/01 11:31:17;;;;;;;;;;;;;28.10;98006.20;;;;108818;1271;41240;-56
2022/11/01 11:33:52;;;;;;;;;;;;;28.36;98004.40;;;;108909;1262;41143;-56
2022/11/01 11:36:31;;;;;;;;;;;;;28.58;98000.40;;;;108974;1270;41143;-56
2022/11/01 11:39:00;;;;;;;;;;;;;28.62;98001.40;;;;108706;1271;41167;-56
2022/11/01 11:41:34;;;;;;;;;;;;;28.38;97996.40;;;;108860;1271;41220;-56
2022/11/01 11:44:02;;;;;;;;;;;;;28.64;97992.80;;;;108984;1257;41897;-56
2022/11/01 11:46:31;;;;;;;;;;;;;29.02;97996.80;;;;108977;1262;41401;-57
2022/11/01 11:49:03;;;;;;;;;;;;;29.54;97999.40;;;;108832;1270;41316;-57
2022/11/01 11:51:33;;;;;;;;;;;;;29.78;97992.60;;;;108746;1271;41609;-56
2022/11/01 11:54:20;;;;;;;;;;;;;30.20;97984.20;;;;108894;1266;41695;-57
2022/11/01 11:57:03;;;;;;;;;;;;;30.50;97991.00;;;;108776;1271;41227;-57
2022/11/01 11:59:31;;;;;;;;;;;;;30.50;97985.20;;;;108916;1270;41156;-57
2022/11/01 12:02:02;;;;;;;;;;;;;30.10;97984.20;;;;108820;1266;41280;-57
2022/11/01 12:04:35;;;;;;;;;;;;;30.20;97983.80;;;;108959;1266;41187;-56
2022/11/01 12:07:06;;;;;;;;;;;;;30.30;97985.20;;;;108785;1270;41625;-56
2022/11/01 12:09:38;;;;;;;;;;;;;30.66;97986.60;;;;108600;1270;42213;-56
2022/11/01 12:12:13;;;;;;;;;;;;;31.18;97985.80;;;;108682;1270;41601;-56
2022/11/01 12:14:41;;;;;;;;;;;;;31.40;97976.00;;;;108592;1270;42200;-56
2022/11/01 12:17:30;;;;;;;;;;;;;30.86;97977.20;;;;108668;1271;41153;-56
2022/11/01 12:20:08;;;;;;;;;;;;;30.60;97976.00;;;;108707;1271;42247;-56
2022/11/01 12:22:37;;;;;;;;;;;;;30.10;97970.80;;;;108721;1270;41595;-56
2022/11/01 12:25:08;;;;;;;;;;;;;30.30;97974.80;;;;108979;1271;41221;-57
2022/11/01 12:27:37;;;;;;;;;;;;;30.80;97974.00;;;;108994;1271;41230;-56
2022/11/01 12:30:10;;;;;;;;;;;;;31.34;97971.00;;;;108906;1271;41240;-57
2022/11/01 12:32:50;;;;;;;;;;;;;31.62;97962.00;;;;108965;1271;41478;-57
2022/11/01 12:35:21;;;;;;;;;;;;;31.42;97959.20;;;;108938;1270;41165;-57
2022/11/01 12:37:54;;;;;;;;;;;;;31.30;97965.80;;;;108930;1271;41300;-57
2022/11/01 12:40:25;;;;;;;;;;;;;31.40;97962.60;;;;108954;1266;41147;-57
2022/11/01 12:43:20;;;;;;;;;;;;;31.18;97966.80;;;;108980;1260;41153;-57
2022/11/01 12:46:07;;;;;;;;;;;;;30.80;97960.00;;;;108917;1270;41145;-57
2022/11/01 12:48:40;;;;;;;;;;;;;30.48;97959.40;;;;108889;1271;41138;-57
2022/11/01 12:51:25;;;;;;;;;;;;;29.90;97956.00;;;;108811;1266;41158;-58
2022/11/01 12:54:12;;;;;;;;;;;;;29.80;97957.00;;;;108736;1269;41236;-58
2022/11/01 12:56:40;;;;;;;;;;;;;29.82;97953.40;;;;108853;1271;41749;-57
2022/11/01 12:59:10;;;;;;;;;;;;;29.40;97952.80;;;;108831;1271;41158;-58
2022/11/01 13:01:45;;;;;;;;;;;;;29.00;97950.20;;;;108866;1271;42344;-58
2022/11/01 13:04:27;;;;;;;;;;;;;28.70;97945.60;;;;108954;1271;41793;-56
2022/11/01 13:07:25;;;;;;;;;;;;;28.40;97949.80;;;;108701;1271;41166;-57
2022/11/01 13:10:01;;;;;;;;;;;;;28.30;97949.80;;;;108706;1271;41695;-56
2022/11/01 13:12:30;;;;;;;;;;;;;28.00;97949.60;;;;108941;1271;42363;-57
2022/11/01 13:15:01;;;;;;;;;;;;;28.08;97949.60;;;;108922;1269;42187;-57
2022/11/01 13:17:51;;;;;;;;;;;;;28.40;97947.20;;;;108743;1265;41139;-56
2022/11/01 13:20:23;;;;;;;;;;;;;28.50;97943.40;;;;108903;1270;41922;-60
2022/11/01 13:22:55;;;;;;;;;;;;;28.50;97937.40;;;;108891;1270;41612;-57
2022/11/01 13:25:43;;;;;;;;;;;;;28.20;97941.60;;;;108609;1271;41145;-56
2022/11/01 13:28:15;;;;;;;;;;;;;27.80;97938.20;;;;108699;1271;41635;-57
2022/11/01 13:30:52;;;;;;;;;;;;;27.90;97932.60;;;;108832;1271;41240;-57
2022/11/01 13:33:27;;;;;;;;;;;;;28.30;97932.40;;;;108913;1270;42460;-57
2022/11/01 13:35:58;;;;;;;;;;;;;28.70;97929.80;;;;108889;1268;41151;-57
2022/11/01 13:38:27;;;;;;;;;;;;;29.10;97934.80;;;;108839;1271;41152;-57
2022/11/01 13:40:58;;;;;;;;;;;;;29.20;97931.00;;;;108942;1270;41186;-57
2022/11/01 13:43:33;;;;;;;;;;;;;29.10;97929.00;;;;108975;1270;41165;-57
2022/11/01 13:46:04;;;;;;;;;;;;;28.60;97923.40;;;;108988;1266;41342;-57
2022/11/01 13:48:45;;;;;;;;;;;;;28.30;97924.60;;;;109007;1270;41729;-57
2022/11/01 13:51:13;;;;;;;;;;;;;27.84;97928.20;;;;108783;1268;41234;-57
2022/11/01 13:54:03;;;;;;;;;;;;;27.10;97928.80;;;;108827;1271;41660;-57
2022/11/01 13:56:36;;;;;;;;;;;;;26.80;97935.80;;;;108659;1263;41146;-57
2022/11/01 13:59:14;;;;;;;;;;;;;26.90;97932.60;;;;108842;1271;41182;-57
2022/11/01 14:01:42;;;;;;;;;;;;;27.10;97927.80;;;;108691;1271;41145;-57